sensor_id;sensor_type;location;lat;lon;timestamp;P1;durP1;ratioP1;P2;durP2;ratioP2
36257;SDS011;22294;52.044;4.582;2022-12-10T00:01:39;81.03;;;32.25;;
36257;SDS011;22294;52.044;4.582;2022-12-10T00:04:06;77.00;;;31.08;;
36257;SDS011;22294;52.044;4.582;2022-12-10T00:06:32;80.85;;;32.70;;
36257;SDS011;22294;52.044;4.582;2022-12-10T00:08:59;73.47;;;30.30;;
36257;SDS011;22294;52.044;4.582;2022-12-10T00:11:26;81.68;;;32.75;;
36257;SDS011;22294;52.044;4.582;2022-12-10T00:13:52;78.53;;;30.92;;
36257;SDS011;22294;52.044;4.582;2022-12-10T00:16:19;83.97;;;32.15;;
36257;SDS011;22294;52.044;4.582;2022-12-10T00:18:46;75.47;;;30.83;;
36257;SDS011;22294;52.044;4.582;2022-12-10T00:21:13;80.60;;;32.22;;
36257;SDS011;22294;52.044;4.582;2022-12-10T00:23:41;76.63;;;31.17;;
36257;SDS011;22294;52.044;4.582;2022-12-10T00:28:33;81.50;;;31.23;;
36257;SDS011;22294;52.044;4.582;2022-12-10T00:31:03;80.45;;;31.27;;
36257;SDS011;22294;52.044;4.582;2022-12-10T00:33:30;89.90;;;33.45;;
36257;SDS011;22294;52.044;4.582;2022-12-10T00:35:55;84.38;;;32.83;;
36257;SDS011;22294;52.044;4.582;2022-12-10T00:38:20;79.45;;;30.77;;
36257;SDS011;22294;52.044;4.582;2022-12-10T00:40:46;83.45;;;32.63;;
36257;SDS011;22294;52.044;4.582;2022-12-10T00:43:11;79.10;;;32.75;;
36257;SDS011;22294;52.044;4.582;2022-12-10T00:45:36;81.38;;;32.45;;
36257;SDS011;22294;52.044;4.582;2022-12-10T00:48:02;84.80;;;32.83;;
36257;SDS011;22294;52.044;4.582;2022-12-10T00:50:27;82.10;;;32.35;;
36257;SDS011;22294;52.044;4.582;2022-12-10T00:52:52;82.63;;;32.85;;
36257;SDS011;22294;52.044;4.582;2022-12-10T00:55:18;88.72;;;32.00;;
36257;SDS011;22294;52.044;4.582;2022-12-10T00:57:43;84.53;;;33.15;;
36257;SDS011;22294;52.044;4.582;2022-12-10T01:00:08;81.65;;;32.17;;
36257;SDS011;22294;52.044;4.582;2022-12-10T01:02:34;77.18;;;31.83;;
36257;SDS011;22294;52.044;4.582;2022-12-10T01:04:59;78.75;;;32.05;;
36257;SDS011;22294;52.044;4.582;2022-12-10T01:07:25;80.65;;;32.38;;
36257;SDS011;22294;52.044;4.582;2022-12-10T01:09:50;79.70;;;31.98;;
36257;SDS011;22294;52.044;4.582;2022-12-10T01:12:15;76.95;;;33.28;;
36257;SDS011;22294;52.044;4.582;2022-12-10T01:14:41;80.13;;;32.10;;
36257;SDS011;22294;52.044;4.582;2022-12-10T01:17:06;78.88;;;33.80;;
36257;SDS011;22294;52.044;4.582;2022-12-10T01:19:32;80.95;;;33.17;;
36257;SDS011;22294;52.044;4.582;2022-12-10T01:21:58;78.55;;;33.25;;
36257;SDS011;22294;52.044;4.582;2022-12-10T01:24:26;76.85;;;32.83;;
36257;SDS011;22294;52.044;4.582;2022-12-10T01:26:53;82.07;;;33.72;;
36257;SDS011;22294;52.044;4.582;2022-12-10T01:29:20;86.75;;;36.03;;
36257;SDS011;22294;52.044;4.582;2022-12-10T01:31:45;88.22;;;35.35;;
36257;SDS011;22294;52.044;4.582;2022-12-10T01:34:14;81.07;;;33.30;;
36257;SDS011;22294;52.044;4.582;2022-12-10T01:36:41;82.30;;;34.65;;
36257;SDS011;22294;52.044;4.582;2022-12-10T01:39:09;81.28;;;33.00;;
36257;SDS011;22294;52.044;4.582;2022-12-10T01:41:37;77.15;;;32.40;;
36257;SDS011;22294;52.044;4.582;2022-12-10T01:49:04;86.38;;;33.58;;
36257;SDS011;22294;52.044;4.582;2022-12-10T01:51:33;81.63;;;32.75;;
36257;SDS011;22294;52.044;4.582;2022-12-10T01:54:00;84.15;;;36.15;;
36257;SDS011;22294;52.044;4.582;2022-12-10T01:56:27;84.85;;;34.03;;
36257;SDS011;22294;52.044;4.582;2022-12-10T01:58:54;89.68;;;35.10;;
36257;SDS011;22294;52.044;4.582;2022-12-10T02:01:27;81.00;;;31.83;;
36257;SDS011;22294;52.044;4.582;2022-12-10T02:04:11;79.70;;;32.80;;
36257;SDS011;22294;52.044;4.582;2022-12-10T02:06:42;85.65;;;35.42;;
36257;SDS011;22294;52.044;4.582;2022-12-10T02:09:23;83.32;;;34.17;;
36257;SDS011;22294;52.044;4.582;2022-12-10T02:17:12;80.20;;;33.72;;
36257;SDS011;22294;52.044;4.582;2022-12-10T02:19:45;89.55;;;35.13;;
36257;SDS011;22294;52.044;4.582;2022-12-10T02:22:27;97.45;;;37.22;;
36257;SDS011;22294;52.044;4.582;2022-12-10T02:24:55;88.65;;;35.13;;
36257;SDS011;22294;52.044;4.582;2022-12-10T02:30:28;102.05;;;36.90;;
36257;SDS011;22294;52.044;4.582;2022-12-10T02:32:56;99.57;;;33.90;;
36257;SDS011;22294;52.044;4.582;2022-12-10T02:35:26;100.22;;;34.45;;
36257;SDS011;22294;52.044;4.582;2022-12-10T02:38:01;92.07;;;33.53;;
36257;SDS011;22294;52.044;4.582;2022-12-10T02:40:31;111.53;;;32.83;;
36257;SDS011;22294;52.044;4.582;2022-12-10T02:42:58;85.85;;;32.08;;
36257;SDS011;22294;52.044;4.582;2022-12-10T02:45:24;122.75;;;33.05;;
36257;SDS011;22294;52.044;4.582;2022-12-10T02:47:53;85.47;;;31.05;;
36257;SDS011;22294;52.044;4.582;2022-12-10T02:50:21;138.18;;;34.85;;
36257;SDS011;22294;52.044;4.582;2022-12-10T02:52:46;102.97;;;34.25;;
36257;SDS011;22294;52.044;4.582;2022-12-10T02:55:12;98.43;;;32.85;;
36257;SDS011;22294;52.044;4.582;2022-12-10T02:57:41;112.10;;;34.63;;
36257;SDS011;22294;52.044;4.582;2022-12-10T03:00:18;106.72;;;33.03;;
36257;SDS011;22294;52.044;4.582;2022-12-10T03:02:55;103.88;;;32.22;;
36257;SDS011;22294;52.044;4.582;2022-12-10T03:08:53;111.82;;;30.52;;
36257;SDS011;22294;52.044;4.582;2022-12-10T03:11:26;112.20;;;29.15;;
36257;SDS011;22294;52.044;4.582;2022-12-10T03:14:00;94.30;;;31.35;;
36257;SDS011;22294;52.044;4.582;2022-12-10T03:16:31;97.43;;;30.67;;
36257;SDS011;22294;52.044;4.582;2022-12-10T03:19:03;131.23;;;30.65;;
36257;SDS011;22294;52.044;4.582;2022-12-10T03:21:32;90.00;;;28.85;;
36257;SDS011;22294;52.044;4.582;2022-12-10T03:24:01;82.38;;;27.88;;
36257;SDS011;22294;52.044;4.582;2022-12-10T03:26:27;141.30;;;29.08;;
36257;SDS011;22294;52.044;4.582;2022-12-10T03:28:54;121.22;;;29.85;;
36257;SDS011;22294;52.044;4.582;2022-12-10T03:31:23;90.35;;;29.83;;
36257;SDS011;22294;52.044;4.582;2022-12-10T03:33:49;90.82;;;29.35;;
36257;SDS011;22294;52.044;4.582;2022-12-10T03:36:16;103.15;;;32.15;;
36257;SDS011;22294;52.044;4.582;2022-12-10T03:38:43;108.18;;;29.70;;
36257;SDS011;22294;52.044;4.582;2022-12-10T03:41:09;126.68;;;31.30;;
36257;SDS011;22294;52.044;4.582;2022-12-10T03:43:34;116.05;;;30.25;;
36257;SDS011;22294;52.044;4.582;2022-12-10T03:46:00;132.57;;;29.05;;
36257;SDS011;22294;52.044;4.582;2022-12-10T03:48:25;103.82;;;28.48;;
36257;SDS011;22294;52.044;4.582;2022-12-10T03:50:51;95.85;;;28.92;;
36257;SDS011;22294;52.044;4.582;2022-12-10T03:53:16;111.25;;;29.67;;
36257;SDS011;22294;52.044;4.582;2022-12-10T03:55:41;113.35;;;28.73;;
36257;SDS011;22294;52.044;4.582;2022-12-10T03:58:07;114.00;;;28.80;;
36257;SDS011;22294;52.044;4.582;2022-12-10T04:00:32;88.07;;;28.30;;
36257;SDS011;22294;52.044;4.582;2022-12-10T04:02:57;77.35;;;26.08;;
36257;SDS011;22294;52.044;4.582;2022-12-10T04:05:23;97.18;;;28.55;;
36257;SDS011;22294;52.044;4.582;2022-12-10T04:07:48;86.65;;;29.10;;
36257;SDS011;22294;52.044;4.582;2022-12-10T04:10:13;99.47;;;28.75;;
36257;SDS011;22294;52.044;4.582;2022-12-10T04:12:39;114.03;;;29.80;;
36257;SDS011;22294;52.044;4.582;2022-12-10T04:15:04;116.10;;;29.10;;
36257;SDS011;22294;52.044;4.582;2022-12-10T04:17:48;112.90;;;28.13;;
36257;SDS011;22294;52.044;4.582;2022-12-10T04:20:14;83.93;;;26.05;;
36257;SDS011;22294;52.044;4.582;2022-12-10T04:22:58;136.13;;;27.95;;
36257;SDS011;22294;52.044;4.582;2022-12-10T04:25:43;123.53;;;27.33;;
36257;SDS011;22294;52.044;4.582;2022-12-10T04:28:27;101.13;;;26.65;;
36257;SDS011;22294;52.044;4.582;2022-12-10T04:30:52;76.30;;;27.63;;
36257;SDS011;22294;52.044;4.582;2022-12-10T04:33:18;100.15;;;26.55;;
36257;SDS011;22294;52.044;4.582;2022-12-10T04:35:43;108.43;;;26.13;;
36257;SDS011;22294;52.044;4.582;2022-12-10T04:38:08;75.80;;;26.65;;
36257;SDS011;22294;52.044;4.582;2022-12-10T04:40:34;85.90;;;26.30;;
36257;SDS011;22294;52.044;4.582;2022-12-10T04:42:59;82.40;;;27.65;;
36257;SDS011;22294;52.044;4.582;2022-12-10T04:45:24;92.78;;;26.52;;
36257;SDS011;22294;52.044;4.582;2022-12-10T04:47:49;102.60;;;28.45;;
36257;SDS011;22294;52.044;4.582;2022-12-10T04:50:15;81.38;;;28.55;;
36257;SDS011;22294;52.044;4.582;2022-12-10T04:52:40;130.43;;;29.02;;
36257;SDS011;22294;52.044;4.582;2022-12-10T04:55:06;86.05;;;28.38;;
36257;SDS011;22294;52.044;4.582;2022-12-10T04:57:31;100.97;;;28.13;;
36257;SDS011;22294;52.044;4.582;2022-12-10T04:59:57;94.57;;;28.05;;
36257;SDS011;22294;52.044;4.582;2022-12-10T05:02:22;96.93;;;28.20;;
36257;SDS011;22294;52.044;4.582;2022-12-10T05:04:48;89.30;;;27.58;;
36257;SDS011;22294;52.044;4.582;2022-12-10T05:07:14;89.82;;;28.02;;
36257;SDS011;22294;52.044;4.582;2022-12-10T05:09:39;95.13;;;29.00;;
36257;SDS011;22294;52.044;4.582;2022-12-10T05:12:04;91.78;;;29.67;;
36257;SDS011;22294;52.044;4.582;2022-12-10T05:14:30;93.40;;;30.00;;
36257;SDS011;22294;52.044;4.582;2022-12-10T05:16:55;96.93;;;28.17;;
36257;SDS011;22294;52.044;4.582;2022-12-10T05:19:20;78.70;;;28.23;;
36257;SDS011;22294;52.044;4.582;2022-12-10T05:21:47;102.10;;;30.27;;
36257;SDS011;22294;52.044;4.582;2022-12-10T05:24:31;91.30;;;28.00;;
36257;SDS011;22294;52.044;4.582;2022-12-10T05:26:57;86.22;;;28.00;;
36257;SDS011;22294;52.044;4.582;2022-12-10T05:29:22;97.30;;;27.20;;
36257;SDS011;22294;52.044;4.582;2022-12-10T05:31:48;90.90;;;26.45;;
36257;SDS011;22294;52.044;4.582;2022-12-10T05:34:13;98.75;;;27.33;;
36257;SDS011;22294;52.044;4.582;2022-12-10T05:36:38;93.93;;;27.10;;
36257;SDS011;22294;52.044;4.582;2022-12-10T05:39:04;80.97;;;25.55;;
36257;SDS011;22294;52.044;4.582;2022-12-10T05:41:31;95.00;;;26.80;;
36257;SDS011;22294;52.044;4.582;2022-12-10T05:43:59;80.95;;;25.50;;
36257;SDS011;22294;52.044;4.582;2022-12-10T05:46:25;101.40;;;26.60;;
36257;SDS011;22294;52.044;4.582;2022-12-10T05:48:53;94.90;;;26.13;;
36257;SDS011;22294;52.044;4.582;2022-12-10T05:51:20;70.93;;;24.80;;
36257;SDS011;22294;52.044;4.582;2022-12-10T05:53:47;77.70;;;25.92;;
36257;SDS011;22294;52.044;4.582;2022-12-10T05:56:16;76.28;;;26.52;;
36257;SDS011;22294;52.044;4.582;2022-12-10T05:58:44;70.03;;;26.75;;
36257;SDS011;22294;52.044;4.582;2022-12-10T06:01:11;83.30;;;25.65;;
36257;SDS011;22294;52.044;4.582;2022-12-10T06:03:39;83.13;;;24.73;;
36257;SDS011;22294;52.044;4.582;2022-12-10T06:06:05;62.75;;;24.60;;
36257;SDS011;22294;52.044;4.582;2022-12-10T06:08:30;69.80;;;24.88;;
36257;SDS011;22294;52.044;4.582;2022-12-10T06:10:56;76.07;;;24.17;;
36257;SDS011;22294;52.044;4.582;2022-12-10T06:13:26;69.65;;;23.67;;
36257;SDS011;22294;52.044;4.582;2022-12-10T06:15:51;70.45;;;24.02;;
36257;SDS011;22294;52.044;4.582;2022-12-10T06:18:17;81.53;;;26.27;;
36257;SDS011;22294;52.044;4.582;2022-12-10T06:20:42;63.05;;;24.80;;
36257;SDS011;22294;52.044;4.582;2022-12-10T06:23:08;62.55;;;23.35;;
36257;SDS011;22294;52.044;4.582;2022-12-10T06:25:33;68.63;;;25.77;;
36257;SDS011;22294;52.044;4.582;2022-12-10T06:27:58;75.35;;;25.20;;
36257;SDS011;22294;52.044;4.582;2022-12-10T06:30:24;74.75;;;24.40;;
36257;SDS011;22294;52.044;4.582;2022-12-10T06:32:49;60.50;;;25.13;;
36257;SDS011;22294;52.044;4.582;2022-12-10T06:35:14;65.47;;;25.20;;
36257;SDS011;22294;52.044;4.582;2022-12-10T06:37:40;74.20;;;25.60;;
36257;SDS011;22294;52.044;4.582;2022-12-10T06:40:05;66.95;;;24.92;;
36257;SDS011;22294;52.044;4.582;2022-12-10T06:42:31;52.90;;;22.13;;
36257;SDS011;22294;52.044;4.582;2022-12-10T06:44:56;60.67;;;23.63;;
36257;SDS011;22294;52.044;4.582;2022-12-10T06:47:22;60.63;;;24.27;;
36257;SDS011;22294;52.044;4.582;2022-12-10T06:49:47;70.90;;;25.40;;
36257;SDS011;22294;52.044;4.582;2022-12-10T06:52:13;67.70;;;25.50;;
36257;SDS011;22294;52.044;4.582;2022-12-10T06:54:38;69.82;;;24.55;;
36257;SDS011;22294;52.044;4.582;2022-12-10T06:57:03;71.45;;;24.00;;
36257;SDS011;22294;52.044;4.582;2022-12-10T06:59:29;57.47;;;24.38;;
36257;SDS011;22294;52.044;4.582;2022-12-10T07:01:54;62.25;;;24.27;;
36257;SDS011;22294;52.044;4.582;2022-12-10T07:04:19;62.08;;;25.08;;
36257;SDS011;22294;52.044;4.582;2022-12-10T07:06:45;70.93;;;23.85;;
36257;SDS011;22294;52.044;4.582;2022-12-10T07:09:10;55.22;;;24.08;;
36257;SDS011;22294;52.044;4.582;2022-12-10T07:11:36;60.15;;;23.52;;
36257;SDS011;22294;52.044;4.582;2022-12-10T07:14:01;55.08;;;22.50;;
36257;SDS011;22294;52.044;4.582;2022-12-10T07:16:28;64.90;;;25.15;;
36257;SDS011;22294;52.044;4.582;2022-12-10T07:18:56;58.83;;;24.20;;
36257;SDS011;22294;52.044;4.582;2022-12-10T07:21:23;56.10;;;23.17;;
36257;SDS011;22294;52.044;4.582;2022-12-10T07:23:51;61.05;;;24.92;;
36257;SDS011;22294;52.044;4.582;2022-12-10T07:26:18;64.00;;;24.98;;
36257;SDS011;22294;52.044;4.582;2022-12-10T07:28:44;63.75;;;23.98;;
36257;SDS011;22294;52.044;4.582;2022-12-10T07:31:10;58.00;;;23.48;;
36257;SDS011;22294;52.044;4.582;2022-12-10T07:33:35;59.13;;;25.55;;
36257;SDS011;22294;52.044;4.582;2022-12-10T07:36:05;51.22;;;22.83;;
36257;SDS011;22294;52.044;4.582;2022-12-10T07:38:31;60.72;;;22.63;;
36257;SDS011;22294;52.044;4.582;2022-12-10T07:40:56;58.13;;;23.60;;
36257;SDS011;22294;52.044;4.582;2022-12-10T07:43:22;54.97;;;22.70;;
36257;SDS011;22294;52.044;4.582;2022-12-10T07:45:47;56.05;;;22.58;;
36257;SDS011;22294;52.044;4.582;2022-12-10T07:48:12;54.90;;;23.23;;
36257;SDS011;22294;52.044;4.582;2022-12-10T07:50:38;55.08;;;23.23;;
36257;SDS011;22294;52.044;4.582;2022-12-10T07:53:03;57.03;;;23.75;;
36257;SDS011;22294;52.044;4.582;2022-12-10T07:55:28;60.75;;;24.73;;
36257;SDS011;22294;52.044;4.582;2022-12-10T07:57:53;60.85;;;24.40;;
36257;SDS011;22294;52.044;4.582;2022-12-10T08:00:19;64.28;;;25.10;;
36257;SDS011;22294;52.044;4.582;2022-12-10T08:02:44;57.63;;;24.85;;
36257;SDS011;22294;52.044;4.582;2022-12-10T08:05:09;72.90;;;30.63;;
36257;SDS011;22294;52.044;4.582;2022-12-10T08:07:35;71.85;;;27.27;;
36257;SDS011;22294;52.044;4.582;2022-12-10T08:10:01;72.30;;;25.95;;
36257;SDS011;22294;52.044;4.582;2022-12-10T08:12:26;64.47;;;24.55;;
36257;SDS011;22294;52.044;4.582;2022-12-10T08:14:52;55.08;;;24.95;;
36257;SDS011;22294;52.044;4.582;2022-12-10T08:17:17;62.78;;;25.35;;
36257;SDS011;22294;52.044;4.582;2022-12-10T08:19:42;66.15;;;26.85;;
36257;SDS011;22294;52.044;4.582;2022-12-10T08:22:08;63.20;;;25.50;;
36257;SDS011;22294;52.044;4.582;2022-12-10T08:24:36;59.92;;;24.63;;
36257;SDS011;22294;52.044;4.582;2022-12-10T08:27:01;64.65;;;26.40;;
36257;SDS011;22294;52.044;4.582;2022-12-10T08:29:26;64.22;;;24.48;;
36257;SDS011;22294;52.044;4.582;2022-12-10T08:31:52;63.03;;;25.02;;
36257;SDS011;22294;52.044;4.582;2022-12-10T08:34:18;61.50;;;23.88;;
36257;SDS011;22294;52.044;4.582;2022-12-10T08:36:44;62.13;;;24.02;;
36257;SDS011;22294;52.044;4.582;2022-12-10T08:39:10;65.03;;;25.17;;
36257;SDS011;22294;52.044;4.582;2022-12-10T08:41:40;59.72;;;24.05;;
36257;SDS011;22294;52.044;4.582;2022-12-10T08:44:05;67.05;;;26.17;;
36257;SDS011;22294;52.044;4.582;2022-12-10T08:46:31;63.75;;;24.05;;
36257;SDS011;22294;52.044;4.582;2022-12-10T08:48:56;71.80;;;27.17;;
36257;SDS011;22294;52.044;4.582;2022-12-10T08:51:21;58.78;;;25.15;;
36257;SDS011;22294;52.044;4.582;2022-12-10T08:53:47;66.57;;;26.98;;
36257;SDS011;22294;52.044;4.582;2022-12-10T08:56:13;64.82;;;26.60;;
36257;SDS011;22294;52.044;4.582;2022-12-10T08:58:38;52.70;;;23.55;;
36257;SDS011;22294;52.044;4.582;2022-12-10T09:01:07;65.18;;;26.48;;
36257;SDS011;22294;52.044;4.582;2022-12-10T09:03:34;64.68;;;25.33;;
36257;SDS011;22294;52.044;4.582;2022-12-10T09:06:02;62.60;;;26.17;;
36257;SDS011;22294;52.044;4.582;2022-12-10T09:08:31;62.15;;;24.77;;
36257;SDS011;22294;52.044;4.582;2022-12-10T09:10:57;67.38;;;25.05;;
36257;SDS011;22294;52.044;4.582;2022-12-10T09:13:23;62.30;;;26.13;;
36257;SDS011;22294;52.044;4.582;2022-12-10T09:15:49;65.68;;;25.90;;
36257;SDS011;22294;52.044;4.582;2022-12-10T09:18:16;64.55;;;25.35;;
36257;SDS011;22294;52.044;4.582;2022-12-10T09:20:41;59.85;;;24.20;;
36257;SDS011;22294;52.044;4.582;2022-12-10T09:23:07;58.55;;;24.17;;
36257;SDS011;22294;52.044;4.582;2022-12-10T09:25:32;64.25;;;26.38;;
36257;SDS011;22294;52.044;4.582;2022-12-10T09:27:57;60.33;;;25.17;;
36257;SDS011;22294;52.044;4.582;2022-12-10T09:30:22;61.92;;;24.38;;
36257;SDS011;22294;52.044;4.582;2022-12-10T09:32:48;64.35;;;24.67;;
36257;SDS011;22294;52.044;4.582;2022-12-10T09:35:13;67.63;;;25.75;;
36257;SDS011;22294;52.044;4.582;2022-12-10T09:37:38;67.05;;;26.15;;
36257;SDS011;22294;52.044;4.582;2022-12-10T09:40:04;70.30;;;27.25;;
36257;SDS011;22294;52.044;4.582;2022-12-10T09:45:26;69.50;;;26.33;;
36257;SDS011;22294;52.044;4.582;2022-12-10T09:48:01;66.63;;;25.58;;
36257;SDS011;22294;52.044;4.582;2022-12-10T09:50:31;65.05;;;25.83;;
36257;SDS011;22294;52.044;4.582;2022-12-10T09:53:01;67.07;;;26.90;;
36257;SDS011;22294;52.044;4.582;2022-12-10T09:55:40;68.70;;;26.60;;
36257;SDS011;22294;52.044;4.582;2022-12-10T09:58:13;63.08;;;25.50;;
36257;SDS011;22294;52.044;4.582;2022-12-10T10:00:44;68.38;;;26.10;;
36257;SDS011;22294;52.044;4.582;2022-12-10T10:03:12;65.45;;;26.17;;
36257;SDS011;22294;52.044;4.582;2022-12-10T10:05:43;68.47;;;26.23;;
36257;SDS011;22294;52.044;4.582;2022-12-10T10:08:13;60.97;;;23.85;;
36257;SDS011;22294;52.044;4.582;2022-12-10T10:10:47;65.72;;;25.23;;
36257;SDS011;22294;52.044;4.582;2022-12-10T10:13:14;66.40;;;24.90;;
36257;SDS011;22294;52.044;4.582;2022-12-10T10:15:47;64.05;;;23.33;;
36257;SDS011;22294;52.044;4.582;2022-12-10T10:18:14;59.65;;;22.58;;
36257;SDS011;22294;52.044;4.582;2022-12-10T10:20:40;59.45;;;22.38;;
36257;SDS011;22294;52.044;4.582;2022-12-10T10:23:07;59.53;;;23.63;;
36257;SDS011;22294;52.044;4.582;2022-12-10T10:25:37;58.75;;;23.10;;
36257;SDS011;22294;52.044;4.582;2022-12-10T10:28:03;55.80;;;22.55;;
36257;SDS011;22294;52.044;4.582;2022-12-10T10:30:28;55.83;;;23.23;;
36257;SDS011;22294;52.044;4.582;2022-12-10T10:32:55;58.42;;;24.50;;
36257;SDS011;22294;52.044;4.582;2022-12-10T10:35:29;54.80;;;23.35;;
36257;SDS011;22294;52.044;4.582;2022-12-10T10:38:07;56.80;;;23.33;;
36257;SDS011;22294;52.044;4.582;2022-12-10T10:40:45;51.45;;;22.58;;
36257;SDS011;22294;52.044;4.582;2022-12-10T10:43:27;54.80;;;24.38;;
36257;SDS011;22294;52.044;4.582;2022-12-10T10:45:58;57.85;;;23.10;;
36257;SDS011;22294;52.044;4.582;2022-12-10T10:48:26;54.70;;;22.67;;
36257;SDS011;22294;52.044;4.582;2022-12-10T10:55:53;53.55;;;23.92;;
36257;SDS011;22294;52.044;4.582;2022-12-10T10:58:20;56.58;;;23.42;;
36257;SDS011;22294;52.044;4.582;2022-12-10T11:00:54;56.13;;;24.77;;
36257;SDS011;22294;52.044;4.582;2022-12-10T11:03:20;55.47;;;24.23;;
36257;SDS011;22294;52.044;4.582;2022-12-10T11:05:46;63.30;;;26.13;;
36257;SDS011;22294;52.044;4.582;2022-12-10T11:08:13;62.33;;;25.75;;
36257;SDS011;22294;52.044;4.582;2022-12-10T11:10:52;56.03;;;24.70;;
36257;SDS011;22294;52.044;4.582;2022-12-10T11:15:55;59.47;;;24.33;;
36257;SDS011;22294;52.044;4.582;2022-12-10T11:18:36;54.95;;;23.35;;
36257;SDS011;22294;52.044;4.582;2022-12-10T11:21:15;56.97;;;24.17;;
36257;SDS011;22294;52.044;4.582;2022-12-10T11:23:45;61.28;;;24.95;;
36257;SDS011;22294;52.044;4.582;2022-12-10T11:31:54;56.63;;;25.17;;
36257;SDS011;22294;52.044;4.582;2022-12-10T11:51:06;53.58;;;24.38;;
36257;SDS011;22294;52.044;4.582;2022-12-10T11:56:33;57.92;;;24.05;;
36257;SDS011;22294;52.044;4.582;2022-12-10T11:59:15;57.58;;;24.85;;
36257;SDS011;22294;52.044;4.582;2022-12-10T12:04:46;63.92;;;27.08;;
36257;SDS011;22294;52.044;4.582;2022-12-10T12:07:28;64.63;;;26.27;;
36257;SDS011;22294;52.044;4.582;2022-12-10T12:12:59;65.93;;;27.73;;
36257;SDS011;22294;52.044;4.582;2022-12-10T12:15:33;64.20;;;27.60;;
36257;SDS011;22294;52.044;4.582;2022-12-10T12:18:20;70.45;;;27.60;;
36257;SDS011;22294;52.044;4.582;2022-12-10T12:20:57;66.40;;;28.67;;
36257;SDS011;22294;52.044;4.582;2022-12-10T12:23:26;69.78;;;28.20;;
36257;SDS011;22294;52.044;4.582;2022-12-10T12:25:57;72.35;;;27.48;;
36257;SDS011;22294;52.044;4.582;2022-12-10T12:28:29;66.75;;;25.58;;
36257;SDS011;22294;52.044;4.582;2022-12-10T12:31:10;66.15;;;28.10;;
36257;SDS011;22294;52.044;4.582;2022-12-10T12:33:42;68.68;;;27.98;;
36257;SDS011;22294;52.044;4.582;2022-12-10T12:36:12;65.10;;;27.58;;
36257;SDS011;22294;52.044;4.582;2022-12-10T12:38:45;64.80;;;27.25;;
36257;SDS011;22294;52.044;4.582;2022-12-10T12:44:11;64.85;;;27.45;;
36257;SDS011;22294;52.044;4.582;2022-12-10T12:46:43;63.25;;;26.17;;
36257;SDS011;22294;52.044;4.582;2022-12-10T12:51:40;66.95;;;26.52;;
36257;SDS011;22294;52.044;4.582;2022-12-10T12:54:11;64.80;;;27.13;;
36257;SDS011;22294;52.044;4.582;2022-12-10T13:04:49;57.60;;;23.73;;
36257;SDS011;22294;52.044;4.582;2022-12-10T13:09:45;61.13;;;25.70;;
36257;SDS011;22294;52.044;4.582;2022-12-10T13:12:29;62.58;;;26.75;;
36257;SDS011;22294;52.044;4.582;2022-12-10T13:23:49;55.05;;;22.95;;
36257;SDS011;22294;52.044;4.582;2022-12-10T13:26:26;55.55;;;24.13;;
36257;SDS011;22294;52.044;4.582;2022-12-10T13:28:54;54.72;;;22.38;;
36257;SDS011;22294;52.044;4.582;2022-12-10T13:31:35;55.20;;;24.17;;
36257;SDS011;22294;52.044;4.582;2022-12-10T13:37:03;50.58;;;22.02;;
36257;SDS011;22294;52.044;4.582;2022-12-10T13:39:45;56.28;;;23.73;;
36257;SDS011;22294;52.044;4.582;2022-12-10T13:45:16;56.80;;;23.45;;
36257;SDS011;22294;52.044;4.582;2022-12-10T13:50:44;59.60;;;25.75;;
36257;SDS011;22294;52.044;4.582;2022-12-10T13:58:55;54.80;;;24.35;;
36257;SDS011;22294;52.044;4.582;2022-12-10T14:04:48;58.15;;;24.63;;
36257;SDS011;22294;52.044;4.582;2022-12-10T14:07:39;54.47;;;23.95;;
36257;SDS011;22294;52.044;4.582;2022-12-10T14:10:13;54.10;;;24.40;;
36257;SDS011;22294;52.044;4.582;2022-12-10T14:12:42;55.65;;;24.23;;
36257;SDS011;22294;52.044;4.582;2022-12-10T14:15:17;64.35;;;25.38;;
36257;SDS011;22294;52.044;4.582;2022-12-10T14:17:48;58.03;;;23.48;;
36257;SDS011;22294;52.044;4.582;2022-12-10T14:20:19;55.38;;;24.02;;
36257;SDS011;22294;52.044;4.582;2022-12-10T14:22:55;60.90;;;24.58;;
36257;SDS011;22294;52.044;4.582;2022-12-10T14:25:42;62.03;;;25.55;;
36257;SDS011;22294;52.044;4.582;2022-12-10T14:30:48;54.33;;;22.95;;
36257;SDS011;22294;52.044;4.582;2022-12-10T14:33:18;50.92;;;22.63;;
36257;SDS011;22294;52.044;4.582;2022-12-10T14:35:48;61.50;;;24.88;;
36257;SDS011;22294;52.044;4.582;2022-12-10T14:38:26;59.85;;;25.17;;
36257;SDS011;22294;52.044;4.582;2022-12-10T14:40:58;55.78;;;25.27;;
36257;SDS011;22294;52.044;4.582;2022-12-10T14:43:46;58.30;;;24.88;;
36257;SDS011;22294;52.044;4.582;2022-12-10T14:46:19;58.00;;;25.10;;
36257;SDS011;22294;52.044;4.582;2022-12-10T14:48:53;59.47;;;25.95;;
36257;SDS011;22294;52.044;4.582;2022-12-10T14:51:20;63.05;;;24.77;;
36257;SDS011;22294;52.044;4.582;2022-12-10T14:53:48;62.83;;;25.42;;
36257;SDS011;22294;52.044;4.582;2022-12-10T14:56:23;66.45;;;26.92;;
36257;SDS011;22294;52.044;4.582;2022-12-10T14:59:06;63.38;;;25.60;;
36257;SDS011;22294;52.044;4.582;2022-12-10T15:01:40;64.65;;;25.98;;
36257;SDS011;22294;52.044;4.582;2022-12-10T15:04:15;65.60;;;27.25;;
36257;SDS011;22294;52.044;4.582;2022-12-10T15:06:42;72.65;;;27.70;;
36257;SDS011;22294;52.044;4.582;2022-12-10T15:09:12;63.90;;;25.40;;
36257;SDS011;22294;52.044;4.582;2022-12-10T15:11:40;60.28;;;26.38;;
36257;SDS011;22294;52.044;4.582;2022-12-10T15:14:06;63.75;;;26.05;;
36257;SDS011;22294;52.044;4.582;2022-12-10T15:16:39;67.55;;;26.33;;
36257;SDS011;22294;52.044;4.582;2022-12-10T15:21:46;72.15;;;28.63;;
36257;SDS011;22294;52.044;4.582;2022-12-10T15:24:26;73.53;;;28.08;;
36257;SDS011;22294;52.044;4.582;2022-12-10T15:27:00;65.65;;;27.00;;
36257;SDS011;22294;52.044;4.582;2022-12-10T15:31:54;66.07;;;26.67;;
36257;SDS011;22294;52.044;4.582;2022-12-10T15:34:22;80.30;;;28.85;;
36257;SDS011;22294;52.044;4.582;2022-12-10T15:36:53;72.32;;;28.23;;
36257;SDS011;22294;52.044;4.582;2022-12-10T15:39:24;72.82;;;27.45;;
36257;SDS011;22294;52.044;4.582;2022-12-10T15:41:56;72.95;;;28.48;;
36257;SDS011;22294;52.044;4.582;2022-12-10T15:44:27;69.70;;;28.08;;
36257;SDS011;22294;52.044;4.582;2022-12-10T15:47:15;74.07;;;27.10;;
36257;SDS011;22294;52.044;4.582;2022-12-10T15:49:46;71.15;;;28.33;;
36257;SDS011;22294;52.044;4.582;2022-12-10T15:52:15;78.38;;;28.80;;
36257;SDS011;22294;52.044;4.582;2022-12-10T15:54:44;87.95;;;29.85;;
36257;SDS011;22294;52.044;4.582;2022-12-10T15:57:18;82.78;;;30.83;;
36257;SDS011;22294;52.044;4.582;2022-12-10T15:59:51;78.35;;;31.23;;
36257;SDS011;22294;52.044;4.582;2022-12-10T16:07:42;79.18;;;28.75;;
36257;SDS011;22294;52.044;4.582;2022-12-10T16:10:09;85.47;;;31.05;;
36257;SDS011;22294;52.044;4.582;2022-12-10T16:12:36;84.45;;;29.55;;
36257;SDS011;22294;52.044;4.582;2022-12-10T16:15:02;84.97;;;30.50;;
36257;SDS011;22294;52.044;4.582;2022-12-10T16:17:29;93.55;;;33.20;;
36257;SDS011;22294;52.044;4.582;2022-12-10T16:20:19;81.57;;;30.65;;
36257;SDS011;22294;52.044;4.582;2022-12-10T16:22:44;82.05;;;30.67;;
36257;SDS011;22294;52.044;4.582;2022-12-10T16:25:11;83.90;;;31.98;;
36257;SDS011;22294;52.044;4.582;2022-12-10T16:27:36;87.03;;;32.92;;